Time;durP1;ratioP1;P1;durP2;ratioP2;P2;SDS_P1;SDS_P2;PMS_P1;PMS_P2;Temp;Humidity;BMP_temperature;BMP_pressure;BME280_temperature;BME280_humidity;BME280_pressure;Samples;Min_cycle;Max_cycle;Signal;HPM_P1;HPM_P2
2021/09/09 00:01:59;;;;;;;8.75;6.55;;;18.00;89.50;;;;;;5064762;28;20029;-66
2021/09/09 00:04:25;;;;;;;11.77;7.10;;;18.00;89.30;;;;;;5063591;28;20025;-66
2021/09/09 00:06:51;;;;;;;10.82;7.55;;;18.00;89.10;;;;;;5065300;28;20060;-65
2021/09/09 00:09:18;;;;;;;10.75;7.85;;;18.00;89.10;;;;;;5064298;28;20052;-67
2021/09/09 00:11:43;;;;;;;12.20;8.30;;;18.00;89.20;;;;;;5062584;28;20037;-66
2021/09/09 00:14:09;;;;;;;12.40;7.45;;;17.90;89.20;;;;;;5061720;28;20547;-65
2021/09/09 00:16:35;;;;;;;10.48;7.75;;;17.90;89.30;;;;;;5061788;28;20029;-66
2021/09/09 00:19:01;;;;;;;10.60;7.53;;;17.90;89.30;;;;;;5061503;28;20036;-66
2021/09/09 00:21:27;;;;;;;10.32;7.65;;;17.90;89.20;;;;;;5062979;28;20517;-66
2021/09/09 00:23:52;;;;;;;10.88;7.75;;;17.80;89.40;;;;;;5068167;28;20047;-66
2021/09/09 00:26:18;;;;;;;10.65;7.45;;;17.90;89.50;;;;;;5063177;28;20039;-66
2021/09/09 00:28:44;;;;;;;10.45;8.07;;;17.90;89.50;;;;;;5063460;28;20028;-66
2021/09/09 00:31:09;;;;;;;11.70;8.02;;;17.80;89.70;;;;;;5062315;28;20040;-66
2021/09/09 00:33:35;;;;;;;20.80;7.95;;;17.80;89.60;;;;;;5063325;28;20041;-66
2021/09/09 00:36:02;;;;;;;10.20;7.63;;;17.90;89.50;;;;;;5061282;28;20028;-68
2021/09/09 00:38:28;;;;;;;11.63;7.93;;;17.90;89.60;;;;;;5060296;28;20029;-66
2021/09/09 00:40:54;;;;;;;10.93;7.47;;;17.90;89.80;;;;;;5063920;28;20425;-65
2021/09/09 00:43:20;;;;;;;10.80;7.90;;;17.90;89.70;;;;;;5060931;28;20086;-66
2021/09/09 00:45:50;;;;;;;11.32;7.80;;;17.90;89.70;;;;;;5063166;28;20078;-66
2021/09/09 00:48:16;;;;;;;10.27;7.65;;;17.90;89.90;;;;;;5061916;28;20082;-66
2021/09/09 00:50:42;;;;;;;10.23;7.47;;;17.80;89.80;;;;;;5062592;28;20029;-66
2021/09/09 00:53:07;;;;;;;12.77;8.18;;;17.80;89.90;;;;;;5062828;28;20043;-67
2021/09/09 00:55:33;;;;;;;12.50;7.47;;;17.80;90.00;;;;;;5063820;28;20356;-66
2021/09/09 00:57:59;;;;;;;13.18;7.55;;;17.80;89.90;;;;;;5063239;28;20025;-66
2021/09/09 01:00:25;;;;;;;12.65;8.05;;;17.80;90.00;;;;;;5059773;28;20047;-66
2021/09/09 01:02:51;;;;;;;10.43;8.02;;;17.80;90.20;;;;;;5065049;28;20024;-66
2021/09/09 01:05:17;;;;;;;9.98;7.47;;;17.80;90.20;;;;;;5068552;28;20525;-64
2021/09/09 01:07:42;;;;;;;9.88;7.47;;;17.70;90.40;;;;;;5064967;28;20028;-67
2021/09/09 01:10:09;;;;;;;11.82;7.88;;;17.70;90.20;;;;;;5065817;28;20108;-66
2021/09/09 01:12:34;;;;;;;10.48;7.97;;;17.70;90.30;;;;;;5066924;28;20086;-66
2021/09/09 01:15:00;;;;;;;12.07;8.32;;;17.70;90.30;;;;;;5063416;28;20025;-66
2021/09/09 01:17:26;;;;;;;10.85;7.80;;;17.70;90.30;;;;;;5060528;28;20055;-66
2021/09/09 01:19:52;;;;;;;11.35;7.85;;;17.70;90.40;;;;;;5063962;28;20029;-66
2021/09/09 01:22:18;;;;;;;12.70;8.68;;;17.70;90.40;;;;;;5061499;28;20037;-66
2021/09/09 01:24:43;;;;;;;13.30;8.55;;;17.60;90.40;;;;;;5064999;28;20063;-65
2021/09/09 01:27:09;;;;;;;10.63;8.05;;;17.70;90.40;;;;;;5066102;28;20078;-66
2021/09/09 01:29:38;;;;;;;10.35;8.55;;;17.70;90.40;;;;;;5060824;28;20439;-66
2021/09/09 01:32:05;;;;;;;13.10;8.75;;;17.70;90.40;;;;;;5060580;28;20017;-66
2021/09/09 01:34:32;;;;;;;9.20;7.35;;;17.60;90.40;;;;;;5062550;28;20242;-67
2021/09/09 01:36:58;;;;;;;11.10;7.80;;;17.60;90.50;;;;;;5058627;28;20055;-65
2021/09/09 01:39:24;;;;;;;11.25;8.05;;;17.60;90.50;;;;;;5059356;28;20578;-66
2021/09/09 01:41:51;;;;;;;12.07;8.48;;;17.60;90.60;;;;;;5061996;28;20017;-66
2021/09/09 01:44:17;;;;;;;11.48;8.05;;;17.60;90.70;;;;;;5062549;28;20123;-66
2021/09/09 01:46:43;;;;;;;11.18;7.55;;;17.50;90.70;;;;;;5064949;28;20454;-66
2021/09/09 01:49:09;;;;;;;10.82;7.78;;;17.50;90.70;;;;;;5059612;28;20112;-66
2021/09/09 01:51:34;;;;;;;11.55;7.97;;;17.50;90.80;;;;;;5063487;28;20502;-66
2021/09/09 01:54:00;;;;;;;10.73;8.18;;;17.50;90.90;;;;;;5063246;28;20024;-65
2021/09/09 01:56:26;;;;;;;13.48;8.60;;;17.50;90.90;;;;;;5062976;28;20479;-66
2021/09/09 01:58:51;;;;;;;13.20;8.18;;;17.50;91.00;;;;;;5068874;28;20478;-66
2021/09/09 02:01:18;;;;;;;11.10;8.15;;;17.40;91.00;;;;;;5059700;28;20028;-66
2021/09/09 02:03:44;;;;;;;12.30;8.57;;;17.40;91.00;;;;;;5065661;28;20024;-66
2021/09/09 02:06:10;;;;;;;11.43;7.88;;;17.40;91.10;;;;;;5058722;28;20095;-66
2021/09/09 02:08:36;;;;;;;12.05;8.65;;;17.40;91.10;;;;;;5064578;28;20036;-67
2021/09/09 02:11:02;;;;;;;11.63;8.07;;;17.30;91.00;;;;;;5069180;28;20391;-66
2021/09/09 02:13:28;;;;;;;13.85;8.73;;;17.30;91.10;;;;;;5065991;28;20262;-66
2021/09/09 02:15:53;;;;;;;12.63;9.07;;;17.30;91.20;;;;;;5062996;28;20067;-66
2021/09/09 02:18:19;;;;;;;12.00;8.90;;;17.30;91.20;;;;;;5063414;28;20032;-66
2021/09/09 02:20:45;;;;;;;12.15;8.65;;;17.30;91.40;;;;;;5064910;28;20052;-67
2021/09/09 02:23:10;;;;;;;10.85;8.50;;;17.30;91.30;;;;;;5067080;28;20031;-67
2021/09/09 02:25:38;;;;;;;12.15;8.93;;;17.30;91.30;;;;;;5062856;28;20032;-66
2021/09/09 02:28:05;;;;;;;11.98;9.20;;;17.20;91.30;;;;;;5068046;28;20056;-66
2021/09/09 02:30:30;;;;;;;11.48;9.13;;;17.20;91.40;;;;;;5062463;28;20040;-66
2021/09/09 02:32:56;;;;;;;12.55;9.00;;;17.20;91.40;;;;;;5060845;28;20040;-67
2021/09/09 02:35:22;;;;;;;13.82;8.90;;;17.20;91.40;;;;;;5069184;28;20060;-66
2021/09/09 02:37:48;;;;;;;14.40;9.63;;;17.20;91.50;;;;;;5066868;28;20029;-66
2021/09/09 02:40:14;;;;;;;13.20;9.35;;;17.20;91.50;;;;;;5066101;28;20507;-65
2021/09/09 02:42:41;;;;;;;12.43;9.23;;;17.10;91.60;;;;;;5062793;28;20025;-66
2021/09/09 02:45:08;;;;;;;12.75;9.18;;;17.10;91.60;;;;;;5068714;28;20029;-66
2021/09/09 02:47:34;;;;;;;12.35;9.50;;;17.10;91.60;;;;;;5067025;28;20040;-65
2021/09/09 02:50:00;;;;;;;13.68;9.00;;;17.10;91.70;;;;;;5071450;28;20029;-66
2021/09/09 02:52:27;;;;;;;13.50;9.55;;;17.10;91.70;;;;;;5072871;28;20514;-65
2021/09/09 02:54:52;;;;;;;12.13;9.05;;;17.10;91.80;;;;;;5068717;28;20037;-66
2021/09/09 02:57:21;;;;;;;13.27;9.85;;;17.10;91.90;;;;;;5069020;28;20036;-65
2021/09/09 02:59:47;;;;;;;13.98;9.55;;;17.10;91.80;;;;;;5063500;28;20462;-66
2021/09/09 03:02:13;;;;;;;13.35;9.00;;;17.00;91.80;;;;;;5064482;28;20052;-66
2021/09/09 03:04:39;;;;;;;11.82;8.60;;;17.00;91.80;;;;;;5068385;28;20033;-66
2021/09/09 03:07:04;;;;;;;14.23;9.82;;;16.90;91.90;;;;;;5071067;28;20079;-65
2021/09/09 03:09:30;;;;;;;13.23;9.73;;;16.90;91.90;;;;;;5068408;28;20032;-66
2021/09/09 03:11:56;;;;;;;14.77;10.70;;;16.90;92.00;;;;;;5067044;28;20082;-66
2021/09/09 03:14:22;;;;;;;13.15;10.55;;;16.90;92.00;;;;;;5066567;28;20517;-66
2021/09/09 03:16:47;;;;;;;14.52;10.75;;;16.90;92.10;;;;;;5068375;28;20032;-66
2021/09/09 03:19:13;;;;;;;14.18;10.60;;;16.90;92.10;;;;;;5068686;28;20033;-66
2021/09/09 03:21:39;;;;;;;15.65;10.10;;;16.90;92.10;;;;;;5064839;28;20041;-67
2021/09/09 03:24:05;;;;;;;13.35;10.60;;;16.90;92.20;;;;;;5070679;28;20098;-66
2021/09/09 03:26:31;;;;;;;14.00;10.35;;;16.80;92.20;;;;;;5069336;28;20055;-66
2021/09/09 03:28:57;;;;;;;14.20;10.55;;;16.80;92.10;;;;;;5063569;28;20483;-66
2021/09/09 03:31:22;;;;;;;16.02;10.20;;;16.80;92.20;;;;;;5064934;28;20036;-66
2021/09/09 03:33:48;;;;;;;14.27;10.45;;;16.80;92.30;;;;;;5063480;28;20098;-67
2021/09/09 03:36:13;;;;;;;14.35;10.63;;;16.80;92.20;;;;;;5065860;28;20028;-66
2021/09/09 03:38:39;;;;;;;14.45;9.95;;;16.80;92.30;;;;;;5074077;28;20024;-65
2021/09/09 03:41:05;;;;;;;13.98;10.50;;;16.80;92.40;;;;;;5069798;28;20017;-66
2021/09/09 03:43:31;;;;;;;15.63;9.82;;;16.70;92.40;;;;;;5069238;28;20027;-66
2021/09/09 03:45:57;;;;;;;15.60;10.95;;;16.70;92.40;;;;;;5067595;28;20406;-67
2021/09/09 03:48:22;;;;;;;15.85;10.75;;;16.70;92.50;;;;;;5068543;28;20105;-66
2021/09/09 03:50:48;;;;;;;13.82;10.70;;;16.70;92.50;;;;;;5065550;28;20028;-66
2021/09/09 03:53:14;;;;;;;13.88;10.90;;;16.70;92.50;;;;;;5066367;28;20020;-66
2021/09/09 03:55:39;;;;;;;13.95;9.77;;;16.70;92.40;;;;;;5064867;28;20126;-66
2021/09/09 03:58:05;;;;;;;13.82;10.40;;;16.60;92.50;;;;;;5067571;28;20114;-66
2021/09/09 04:00:31;;;;;;;13.82;10.13;;;16.60;92.60;;;;;;5062962;28;20021;-66
2021/09/09 04:02:59;;;;;;;13.77;10.38;;;16.60;92.60;;;;;;5070981;28;20029;-64
2021/09/09 04:05:25;;;;;;;14.95;10.70;;;16.60;92.60;;;;;;5068998;28;20115;-66
2021/09/09 04:07:50;;;;;;;14.20;10.52;;;16.60;92.60;;;;;;5071294;28;20025;-66
2021/09/09 04:10:16;;;;;;;16.95;10.90;;;16.60;92.60;;;;;;5069250;28;20441;-65
2021/09/09 04:12:42;;;;;;;14.13;10.55;;;16.60;92.60;;;;;;5066920;28;20084;-66
2021/09/09 04:15:08;;;;;;;16.30;10.63;;;16.60;92.70;;;;;;5065396;28;20036;-66
2021/09/09 04:17:35;;;;;;;22.50;13.50;;;16.50;92.70;;;;;;5070318;28;20025;-66
2021/09/09 04:20:01;;;;;;;15.70;12.02;;;16.50;92.80;;;;;;5065550;28;20016;-66
2021/09/09 04:22:27;;;;;;;15.90;12.10;;;16.50;92.70;;;;;;5064980;28;20025;-66
2021/09/09 04:24:53;;;;;;;16.80;11.20;;;16.50;92.90;;;;;;5068277;28;20103;-66
2021/09/09 04:27:25;;;;;;;17.35;12.15;;;16.50;92.80;;;;;;5067411;28;20050;-66
2021/09/09 04:29:51;;;;;;;17.48;11.50;;;16.50;92.90;;;;;;5063381;28;20043;-66
2021/09/09 04:32:18;;;;;;;16.90;11.80;;;16.50;92.90;;;;;;5065412;28;20040;-66
2021/09/09 04:34:45;;;;;;;13.45;11.50;;;16.50;92.90;;;;;;5081870;28;20062;-66
2021/09/09 04:37:12;;;;;;;16.75;11.88;;;16.50;93.00;;;;;;5066845;28;20417;-66
2021/09/09 04:39:37;;;;;;;17.98;12.35;;;16.40;92.80;;;;;;5065402;28;20321;-66
2021/09/09 04:42:03;;;;;;;18.20;11.88;;;16.40;93.00;;;;;;5065543;28;20111;-65
2021/09/09 04:44:29;;;;;;;16.92;11.85;;;16.40;93.00;;;;;;5065843;28;20108;-66
2021/09/09 04:46:55;;;;;;;13.80;11.35;;;16.40;93.00;;;;;;5067375;28;20115;-66
2021/09/09 04:49:21;;;;;;;17.10;12.38;;;16.40;92.90;;;;;;5066912;28;20040;-66
2021/09/09 04:51:46;;;;;;;17.08;11.57;;;16.40;93.00;;;;;;5064997;28;20039;-66
2021/09/09 04:54:12;;;;;;;17.48;11.40;;;16.40;93.10;;;;;;5068297;28;20086;-66
2021/09/09 04:56:37;;;;;;;15.07;11.57;;;16.40;93.10;;;;;;5061644;28;20071;-65
2021/09/09 04:59:03;;;;;;;14.68;10.77;;;16.40;93.10;;;;;;5058782;28;20044;-64
2021/09/09 05:01:29;;;;;;;14.85;11.50;;;16.40;93.20;;;;;;5060966;28;20455;-66
2021/09/09 05:03:55;;;;;;;18.40;11.43;;;16.30;93.20;;;;;;5060641;28;20032;-66
2021/09/09 05:06:20;;;;;;;15.88;11.15;;;16.30;93.40;;;;;;5063133;28;20028;-66
2021/09/09 05:08:46;;;;;;;15.88;11.65;;;16.30;93.30;;;;;;5064708;28;20123;-66
2021/09/09 05:11:12;;;;;;;19.38;12.85;;;16.30;93.40;;;;;;5065610;28;20052;-66
2021/09/09 05:13:39;;;;;;;16.75;11.30;;;16.40;93.30;;;;;;5063671;28;20053;-66
2021/09/09 05:16:05;;;;;;;19.52;11.68;;;16.30;93.30;;;;;;5067286;28;20016;-66
2021/09/09 05:18:32;;;;;;;17.48;12.15;;;16.40;93.30;;;;;;5061504;28;20028;-67
2021/09/09 05:20:58;;;;;;;17.17;12.38;;;16.40;93.30;;;;;;5064698;28;20051;-67
2021/09/09 05:23:24;;;;;;;17.60;12.95;;;16.40;93.30;;;;;;5065686;28;20032;-68
2021/09/09 05:25:50;;;;;;;17.98;12.60;;;16.40;93.50;;;;;;5063135;28;20021;-67
2021/09/09 05:28:16;;;;;;;18.25;13.80;;;16.40;93.40;;;;;;5064504;28;20074;-66
2021/09/09 05:30:41;;;;;;;18.77;14.55;;;16.40;93.40;;;;;;5064681;28;20090;-67
2021/09/09 05:33:07;;;;;;;18.05;12.98;;;16.40;93.50;;;;;;5064730;28;20113;-70
2021/09/09 05:35:34;;;;;;;22.30;14.25;;;16.40;93.60;;;;;;5068419;28;20024;-68
2021/09/09 05:38:00;;;;;;;18.08;13.35;;;16.40;93.50;;;;;;5064083;28;20048;-67
2021/09/09 05:40:25;;;;;;;22.23;13.75;;;16.40;93.50;;;;;;5060742;28;20067;-68
2021/09/09 05:42:52;;;;;;;19.50;13.32;;;16.40;93.60;;;;;;5065313;28;20036;-67
2021/09/09 05:45:17;;;;;;;18.23;13.27;;;16.40;93.50;;;;;;5066577;28;20123;-66
2021/09/09 05:47:43;;;;;;;17.73;13.70;;;16.40;93.50;;;;;;5063498;28;20475;-66
2021/09/09 05:50:09;;;;;;;21.60;14.63;;;16.50;93.50;;;;;;5062746;28;20021;-66
2021/09/09 05:52:35;;;;;;;17.85;14.10;;;16.50;93.50;;;;;;5066522;28;20058;-67
2021/09/09 05:55:01;;;;;;;19.85;13.63;;;16.50;93.50;;;;;;5064882;28;20303;-67
2021/09/09 05:57:26;;;;;;;20.67;13.70;;;16.60;93.50;;;;;;5064078;28;20032;-66
2021/09/09 05:59:52;;;;;;;18.85;13.77;;;16.60;93.60;;;;;;5068239;28;20032;-67
2021/09/09 06:02:19;;;;;;;21.70;14.52;;;16.60;93.60;;;;;;5064775;28;20029;-66
2021/09/09 06:04:49;;;;;;;21.52;14.50;;;16.60;93.50;;;;;;5063710;28;20029;-67
2021/09/09 06:07:15;;;;;;;20.27;13.35;;;16.70;93.40;;;;;;5062351;28;20100;-70
2021/09/09 06:09:41;;;;;;;21.58;13.73;;;16.70;93.40;;;;;;5064357;28;20032;-71
2021/09/09 06:12:07;;;;;;;19.42;13.45;;;16.80;93.40;;;;;;5064671;28;20040;-71
2021/09/09 06:14:33;;;;;;;17.13;13.02;;;16.80;93.40;;;;;;5065617;28;20060;-71
2021/09/09 06:16:59;;;;;;;18.13;14.45;;;16.80;93.40;;;;;;5062345;28;20037;-71
2021/09/09 06:19:25;;;;;;;20.63;14.23;;;16.80;93.30;;;;;;5063807;28;20435;-70
2021/09/09 06:21:51;;;;;;;21.23;14.93;;;16.90;93.30;;;;;;5064323;28;20024;-70
2021/09/09 06:24:17;;;;;;;24.23;15.32;;;16.90;93.20;;;;;;5060768;28;20058;-71
2021/09/09 06:26:43;;;;;;;20.55;13.82;;;16.90;93.10;;;;;;5059413;28;20479;-71
2021/09/09 06:29:09;;;;;;;19.77;14.07;;;16.90;93.00;;;;;;5065372;28;20029;-71
2021/09/09 06:31:34;;;;;;;24.67;14.60;;;17.00;93.10;;;;;;5058800;28;20079;-71
2021/09/09 06:34:00;;;;;;;20.85;14.75;;;17.00;93.00;;;;;;5065391;28;20040;-71
2021/09/09 06:36:26;;;;;;;17.85;13.98;;;17.00;93.00;;;;;;5062580;28;20379;-71
2021/09/09 06:38:52;;;;;;;20.10;13.43;;;17.10;92.90;;;;;;5063303;28;20514;-72
2021/09/09 06:41:18;;;;;;;21.75;14.32;;;17.10;92.90;;;;;;5061021;28;20175;-71
2021/09/09 06:43:43;;;;;;;23.60;14.60;;;17.20;92.90;;;;;;5066366;28;20020;-71
2021/09/09 06:46:09;;;;;;;21.05;15.30;;;17.20;92.80;;;;;;5064506;28;20025;-70
2021/09/09 06:48:35;;;;;;;17.63;13.02;;;17.20;92.80;;;;;;5062522;28;20029;-69
2021/09/09 06:51:01;;;;;;;20.48;13.82;;;17.30;92.70;;;;;;5059458;28;20032;-71
2021/09/09 06:53:28;;;;;;;20.55;13.90;;;17.30;92.60;;;;;;5067305;28;20498;-72
2021/09/09 06:55:54;;;;;;;18.42;13.68;;;17.40;92.60;;;;;;5060000;28;20033;-72
2021/09/09 06:58:19;;;;;;;20.63;14.82;;;17.40;92.80;;;;;;5049374;28;20063;-69
2021/09/09 07:00:45;;;;;;;20.30;13.77;;;17.40;92.40;;;;;;5058863;28;20025;-67
2021/09/09 07:03:11;;;;;;;18.52;13.80;;;17.50;92.30;;;;;;5059058;28;20550;-67
2021/09/09 07:05:37;;;;;;;21.17;13.98;;;17.50;92.30;;;;;;5060179;28;20111;-68
2021/09/09 07:08:03;;;;;;;18.38;13.93;;;17.60;92.20;;;;;;5063881;28;20478;-67
2021/09/09 07:10:29;;;;;;;17.50;12.90;;;17.60;92.00;;;;;;5061776;28;20402;-68
2021/09/09 07:12:54;;;;;;;17.77;13.52;;;17.60;91.90;;;;;;5059798;28;20029;-67
2021/09/09 07:15:20;;;;;;;20.60;13.65;;;17.70;91.90;;;;;;5063187;28;20025;-67
2021/09/09 07:17:46;;;;;;;19.33;13.43;;;17.70;91.80;;;;;;5064168;28;20020;-68
2021/09/09 07:20:12;;;;;;;19.13;13.85;;;17.80;91.60;;;;;;5059514;28;20039;-68
2021/09/09 07:22:38;;;;;;;19.30;13.40;;;17.80;91.50;;;;;;5060496;28;20381;-68
2021/09/09 07:25:04;;;;;;;15.90;11.82;;;17.90;91.50;;;;;;5065246;28;20506;-68
2021/09/09 07:27:31;;;;;;;18.15;13.00;;;17.90;91.40;;;;;;5066563;28;20060;-67
2021/09/09 07:29:57;;;;;;;19.25;14.50;;;18.00;91.30;;;;;;5064709;28;20036;-68
2021/09/09 07:32:23;;;;;;;18.83;13.45;;;18.00;91.10;;;;;;5063481;28;20033;-67
2021/09/09 07:34:50;;;;;;;20.58;13.18;;;18.00;91.00;;;;;;5064712;28;20029;-67
2021/09/09 07:37:16;;;;;;;14.18;11.07;;;18.10;91.00;;;;;;5064357;28;20119;-67
2021/09/09 07:39:42;;;;;;;17.92;12.38;;;18.10;90.90;;;;;;5067471;28;20104;-68
2021/09/09 07:42:07;;;;;;;17.60;11.77;;;18.20;90.80;;;;;;5064191;28;20024;-67
2021/09/09 07:44:33;;;;;;;19.17;11.95;;;18.30;90.70;;;;;;5065968;28;20495;-67
2021/09/09 07:47:01;;;;;;;15.98;11.60;;;18.30;90.70;;;;;;5065686;28;20087;-67
2021/09/09 07:49:27;;;;;;;17.02;11.60;;;18.40;90.50;;;;;;5065827;28;20032;-67
2021/09/09 07:51:53;;;;;;;15.80;12.23;;;18.40;90.30;;;;;;5065748;28;20040;-68
2021/09/09 07:54:19;;;;;;;20.23;12.38;;;18.50;90.30;;;;;;5065342;28;20040;-68
2021/09/09 07:56:45;;;;;;;18.63;11.80;;;18.50;89.40;;;;;;5063939;28;20099;-68
2021/09/09 07:59:11;;;;;;;14.73;11.32;;;18.60;90.00;;;;;;5064447;28;20043;-68
2021/09/09 08:01:36;;;;;;;17.25;11.65;;;18.60;90.00;;;;;;5065719;28;20033;-67
2021/09/09 08:04:02;;;;;;;15.75;11.55;;;18.70;88.50;;;;;;5065655;28;20020;-67
2021/09/09 08:06:28;;;;;;;17.00;10.40;;;18.70;88.50;;;;;;5065791;28;20453;-67
2021/09/09 08:08:54;;;;;;;14.82;11.93;;;18.80;88.80;;;;;;5065627;28;20033;-68
2021/09/09 08:11:19;;;;;;;15.75;11.70;;;18.80;88.40;;;;;;5067491;28;20060;-68
2021/09/09 08:13:45;;;;;;;17.17;10.50;;;18.80;88.30;;;;;;5065453;28;20049;-68
2021/09/09 08:16:11;;;;;;;17.17;11.00;;;18.90;88.60;;;;;;5062291;28;20028;-68
2021/09/09 08:18:36;;;;;;;14.65;10.70;;;18.90;88.30;;;;;;5065922;28;20031;-67
2021/09/09 08:21:02;;;;;;;18.88;12.18;;;19.00;88.10;;;;;;5063708;28;20032;-68
2021/09/09 08:23:28;;;;;;;15.98;10.40;;;19.10;87.50;;;;;;5064898;28;20578;-68
2021/09/09 08:25:53;;;;;;;14.55;10.88;;;19.10;87.40;;;;;;5068131;28;20070;-68
2021/09/09 08:28:20;;;;;;;14.68;10.38;;;19.20;87.20;;;;;;5067269;28;20049;-68
2021/09/09 08:30:46;;;;;;;14.45;10.68;;;19.20;87.30;;;;;;5063335;28;20029;-68
2021/09/09 08:33:13;;;;;;;15.30;10.52;;;19.30;87.20;;;;;;5061803;28;20107;-67
2021/09/09 08:35:42;;;;;;;19.23;11.38;;;19.40;86.70;;;;;;5060481;28;20094;-67
2021/09/09 08:38:09;;;;;;;16.45;10.55;;;19.50;86.30;;;;;;5063983;28;20032;-68
2021/09/09 08:40:39;;;;;;;16.75;10.73;;;19.50;86.30;;;;;;5060063;28;20562;-68
2021/09/09 08:43:06;;;;;;;17.85;10.68;;;19.60;86.20;;;;;;5065666;28;20027;-68
2021/09/09 08:45:32;;;;;;;11.77;9.23;;;19.60;85.60;;;;;;5064145;28;20033;-68
2021/09/09 08:48:04;;;;;;;13.32;9.40;;;19.70;85.40;;;;;;5063041;28;20093;-68
2021/09/09 08:50:31;;;;;;;13.90;9.32;;;19.80;85.10;;;;;;5065708;28;20032;-68
2021/09/09 08:52:59;;;;;;;13.07;9.05;;;19.80;84.80;;;;;;5063885;28;20024;-68
2021/09/09 08:55:25;;;;;;;16.40;10.60;;;20.00;84.80;;;;;;5061715;28;20122;-68
2021/09/09 08:57:51;;;;;;;11.52;9.45;;;20.00;85.10;;;;;;5062695;28;20128;-68
2021/09/09 09:00:17;;;;;;;15.07;9.52;;;20.10;84.10;;;;;;5061491;28;20056;-67
2021/09/09 09:02:51;;;;;;;12.70;9.35;;;20.20;84.10;;;;;;5050577;28;20352;-68
2021/09/09 09:05:17;;;;;;;14.68;9.13;;;20.30;84.00;;;;;;5065922;28;20075;-68
2021/09/09 09:07:43;;;;;;;17.15;9.02;;;20.30;83.60;;;;;;5063609;28;20053;-65
2021/09/09 09:10:09;;;;;;;11.77;8.23;;;20.40;83.40;;;;;;5062512;28;20070;-68
2021/09/09 09:12:38;;;;;;;13.45;8.75;;;20.40;82.40;;;;;;5059239;28;20491;-68
2021/09/09 09:15:21;;;;;;;11.90;8.40;;;20.50;81.40;;;;;;5063161;28;20554;-68
2021/09/09 09:17:56;;;;;;;12.07;8.43;;;20.60;81.10;;;;;;5062122;28;20021;-68
2021/09/09 09:20:25;;;;;;;15.27;8.25;;;20.70;79.50;;;;;;5062200;28;20036;-68
2021/09/09 09:22:52;;;;;;;13.77;8.85;;;20.80;78.60;;;;;;5064331;28;20012;-68
2021/09/09 09:25:18;;;;;;;11.95;7.78;;;20.80;78.10;;;;;;5061829;28;20214;-68
2021/09/09 09:27:47;;;;;;;12.13;7.43;;;20.90;77.60;;;;;;5062811;28;20043;-68
2021/09/09 09:30:14;;;;;;;9.88;7.85;;;20.90;77.60;;;;;;5063582;28;20024;-68
2021/09/09 09:32:49;;;;;;;10.48;7.13;;;21.00;77.80;;;;;;5062241;28;20043;-68
2021/09/09 09:35:17;;;;;;;12.95;8.13;;;21.10;77.40;;;;;;5062197;28;20491;-68
2021/09/09 09:37:53;;;;;;;12.82;7.20;;;21.20;77.10;;;;;;5061046;28;20111;-66
2021/09/09 09:40:30;;;;;;;12.63;7.22;;;21.20;76.10;;;;;;5062169;28;20437;-67
2021/09/09 09:42:57;;;;;;;15.80;7.68;;;21.30;75.50;;;;;;5061856;28;20509;-67
2021/09/09 09:45:23;;;;;;;11.43;7.47;;;21.40;74.50;;;;;;5062021;28;20044;-67
2021/09/09 09:47:49;;;;;;;14.55;7.95;;;21.50;73.80;;;;;;5061024;28;20037;-67
2021/09/09 09:50:17;;;;;;;14.35;7.90;;;21.60;75.00;;;;;;5059735;28;20483;-67
2021/09/09 09:52:43;;;;;;;10.52;7.10;;;21.70;75.40;;;;;;5059103;28;20032;-66
2021/09/09 09:55:10;;;;;;;11.90;7.60;;;21.70;75.50;;;;;;5064037;28;20530;-67
2021/09/09 09:57:52;;;;;;;12.38;7.75;;;21.80;75.10;;;;;;5060805;28;20066;-67
2021/09/09 10:00:18;;;;;;;9.15;6.95;;;21.90;73.50;;;;;;5060517;28;20040;-67
2021/09/09 10:02:44;;;;;;;10.38;7.53;;;21.90;73.00;;;;;;5059792;28;20025;-67
2021/09/09 10:05:11;;;;;;;13.02;6.82;;;21.90;72.40;;;;;;5060406;28;20032;-67
2021/09/09 10:07:37;;;;;;;11.43;7.03;;;22.00;72.80;;;;;;5061547;28;20036;-67
2021/09/09 10:10:04;;;;;;;13.57;7.35;;;22.00;72.20;;;;;;5060217;28;20028;-67
2021/09/09 10:12:30;;;;;;;9.43;6.65;;;22.10;71.50;;;;;;5060368;28;20025;-67
2021/09/09 10:14:59;;;;;;;12.68;7.28;;;22.20;71.80;;;;;;5060793;28;20522;-67
2021/09/09 10:17:27;;;;;;;11.43;7.20;;;22.20;71.20;;;;;;5061951;28;20405;-67
2021/09/09 10:19:52;;;;;;;12.98;7.57;;;22.30;70.90;;;;;;5060529;28;20028;-67
2021/09/09 10:22:22;;;;;;;10.02;6.80;;;22.30;71.20;;;;;;5060480;28;20093;-67
2021/09/09 10:25:12;;;;;;;12.32;7.38;;;22.30;70.70;;;;;;5061867;28;20043;-68
2021/09/09 10:27:42;;;;;;;11.02;6.75;;;22.40;69.30;;;;;;5061954;28;20115;-67
2021/09/09 10:30:18;;;;;;;7.97;6.00;;;22.40;69.70;;;;;;5057832;28;20025;-70
2021/09/09 10:32:48;;;;;;;14.90;7.00;;;22.40;69.60;;;;;;5061473;28;20053;-69
2021/09/09 10:35:22;;;;;;;11.27;7.55;;;22.50;69.30;;;;;;5062720;28;20063;-70
2021/09/09 10:37:47;;;;;;;9.57;7.63;;;22.60;69.90;;;;;;5059665;28;20025;-71
2021/09/09 10:40:31;;;;;;;11.80;6.82;;;22.70;70.20;;;;;;5063169;28;20017;-70
2021/09/09 10:42:58;;;;;;;11.73;6.80;;;22.70;69.70;;;;;;5063330;28;20501;-69
2021/09/09 10:45:33;;;;;;;10.55;8.30;;;22.80;70.10;;;;;;5060390;28;20036;-70
2021/09/09 10:48:06;;;;;;;11.27;8.43;;;22.90;69.90;;;;;;5061070;28;20024;-69
2021/09/09 10:50:33;;;;;;;9.23;6.72;;;22.90;70.60;;;;;;5064309;28;20113;-70
2021/09/09 10:53:07;;;;;;;9.55;6.60;;;23.00;70.30;;;;;;5063513;28;20522;-70
2021/09/09 10:55:36;;;;;;;10.25;7.38;;;23.10;70.20;;;;;;5063626;28;20037;-70
2021/09/09 10:58:20;;;;;;;13.98;8.75;;;23.20;69.80;;;;;;5059247;28;20029;-70
2021/09/09 11:00:51;;;;;;;12.10;7.53;;;23.40;69.70;;;;;;5062064;28;20515;-69
2021/09/09 11:03:37;;;;;;;12.85;7.57;;;23.50;69.70;;;;;;5064696;28;20036;-70
2021/09/09 11:06:11;;;;;;;11.25;7.18;;;23.90;68.70;;;;;;5066372;28;20487;-69
2021/09/09 11:08:38;;;;;;;13.88;6.82;;;24.30;68.10;;;;;;5064080;28;20036;-70
2021/09/09 11:11:06;;;;;;;13.13;7.10;;;25.60;67.10;;;;;;5062279;28;20058;-70
2021/09/09 11:13:33;;;;;;;8.40;6.97;;;27.90;62.40;;;;;;5067685;28;20486;-70
2021/09/09 11:16:00;;;;;;;7.97;6.13;;;30.70;53.70;;;;;;5065985;28;20029;-72
2021/09/09 11:18:28;;;;;;;13.30;6.32;;;33.40;47.80;;;;;;5063682;28;20060;-73
2021/09/09 11:21:09;;;;;;;9.43;6.68;;;35.40;41.80;;;;;;5065953;28;20235;-75
2021/09/09 11:23:36;;;;;;;9.65;6.88;;;36.90;38.90;;;;;;5065378;28;20028;-72
2021/09/09 11:26:14;;;;;;;8.35;7.25;;;38.00;36.30;;;;;;5064972;28;20028;-74
2021/09/09 11:28:40;;;;;;;9.50;6.95;;;38.90;34.90;;;;;;5068938;28;20567;-77
2021/09/09 11:31:13;;;;;;;8.38;7.13;;;39.20;32.40;;;;;;5065129;28;20032;-73
2021/09/09 11:33:51;;;;;;;9.45;7.22;;;39.40;33.50;;;;;;5066596;28;20037;-73
2021/09/09 11:36:18;;;;;;;8.98;7.22;;;40.00;33.60;;;;;;5062826;28;20090;-78
2021/09/09 11:38:44;;;;;;;9.27;7.15;;;39.80;32.20;;;;;;5065960;28;20032;-75
2021/09/09 11:41:13;;;;;;;9.10;6.82;;;39.30;32.50;;;;;;5066441;28;20531;-76
2021/09/09 11:43:40;;;;;;;7.60;6.80;;;39.20;31.20;;;;;;5065601;28;20396;-75
2021/09/09 11:46:06;;;;;;;9.32;7.72;;;39.50;32.70;;;;;;5069369;28;20020;-76
2021/09/09 11:48:32;;;;;;;9.52;7.03;;;39.30;32.00;;;;;;5068425;28;20039;-77
2021/09/09 11:50:59;;;;;;;9.57;7.32;;;38.70;32.30;;;;;;5068764;28;20033;-75
2021/09/09 11:53:26;;;;;;;9.57;6.95;;;37.80;33.40;;;;;;5067892;28;20315;-74
2021/09/09 11:55:53;;;;;;;8.35;7.35;;;37.20;35.70;;;;;;5064228;28;20491;-70
2021/09/09 11:58:33;;;;;;;15.05;8.25;;;36.50;36.10;;;;;;5061149;28;20037;-71
2021/09/09 12:01:01;;;;;;;11.13;8.00;;;35.60;36.70;;;;;;5065031;28;20123;-71
2021/09/09 12:03:27;;;;;;;10.02;7.50;;;34.50;38.90;;;;;;5064646;28;20024;-70
2021/09/09 12:05:53;;;;;;;10.30;6.95;;;33.50;40.00;;;;;;5064761;28;20035;-72
2021/09/09 12:08:19;;;;;;;8.52;6.78;;;32.60;41.60;;;;;;5066779;28;20254;-71
2021/09/09 12:10:46;;;;;;;10.38;7.03;;;32.00;42.00;;;;;;5063042;28;20241;-71
2021/09/09 12:13:11;;;;;;;13.00;7.50;;;31.60;43.20;;;;;;5066972;28;20036;-71
2021/09/09 12:15:37;;;;;;;10.70;7.25;;;31.40;42.90;;;;;;5064227;28;20150;-71
2021/09/09 12:18:09;;;;;;;9.73;6.95;;;31.40;43.40;;;;;;5064845;28;20115;-72
2021/09/09 12:20:35;;;;;;;9.35;7.40;;;31.60;43.40;;;;;;5064384;28;20104;-71
2021/09/09 12:23:02;;;;;;;10.85;7.22;;;32.00;42.70;;;;;;5066875;28;20150;-71
2021/09/09 12:25:27;;;;;;;7.95;7.15;;;32.20;41.00;;;;;;5065292;28;20498;-71
2021/09/09 12:28:20;;;;;;;8.55;6.97;;;32.60;42.20;;;;;;5065554;28;20032;-71
2021/09/09 12:30:46;;;;;;;12.57;7.28;;;33.10;41.90;;;;;;5065263;28;20067;-70
2021/09/09 12:33:19;;;;;;;11.15;7.60;;;33.40;40.50;;;;;;5061338;28;20032;-71